KFRH

French Lick Municipal Airport

French Lick, Indiana, USA
METAR KFRH 190715Z AUTO 00000KT 10SM CLR 01/M05 A3006 RMK AO1
Observed Flight Rules
Dec-19 @ 07:15 UTC (24 minutes ago) Visual Flight Rules
Visibility Clouds
10 miles
  • Clear skies
Temperatures Readings
Current 1°C / 34°F
Dewpoint -5°C / 23°F
Humidity 65%
Altimeter 30.06" Hg
Pressure 1018 hPa
Elevation 241
METAR KFRH 190715Z AUTO 00000KT 10SM CLR 01/M05 A3006 RMK AO1
Observed Flight Rules
Dec-19 @ 07:15 UTC
(24 minutes ago)
VFR
Clouds
  • Clear skies
Temperature Dewpoint
1°C / 34°F -5°C / 23°F
Humidity Altimeter Pressure
65% 30.06" Hg 1018 hPa